createdAt,value
2023-05-10T00:01:37.146Z,15.50
2023-05-10T00:04:05.778Z,15.50
2023-05-10T00:06:33.386Z,15.50
2023-05-10T00:09:00.410Z,15.40
2023-05-10T00:11:27.209Z,15.40
2023-05-10T00:13:54.015Z,15.30
2023-05-10T00:16:20.862Z,15.30
2023-05-10T00:18:47.703Z,15.20
2023-05-10T00:21:15.881Z,15.20
2023-05-10T00:23:42.673Z,15.10
2023-05-10T00:26:09.590Z,15.10
2023-05-10T00:28:36.484Z,15.10
2023-05-10T00:31:03.408Z,15.00
2023-05-10T00:33:30.417Z,15.00
2023-05-10T00:35:57.252Z,15.00
2023-05-10T00:38:25.534Z,15.00
2023-05-10T00:40:52.371Z,14.90
2023-05-10T00:43:19.205Z,14.90
2023-05-10T00:45:46.141Z,14.90
2023-05-10T00:48:13.436Z,14.80
2023-05-10T00:50:41.060Z,14.80
2023-05-10T00:53:09.219Z,14.80
2023-05-10T00:55:38.153Z,14.70
2023-05-10T00:58:05.700Z,14.70
2023-05-10T01:00:34.316Z,14.70
2023-05-10T01:03:01.633Z,14.70
2023-05-10T01:05:28.605Z,14.70
2023-05-10T01:07:55.372Z,14.70
2023-05-10T01:10:23.245Z,14.70
2023-05-10T01:12:52.130Z,14.60
2023-05-10T01:15:19.797Z,14.60
2023-05-10T01:17:48.265Z,14.60
2023-05-10T01:20:15.795Z,14.60
2023-05-10T01:23:02.672Z,14.60
2023-05-10T01:25:50.061Z,14.60
2023-05-10T01:29:04.306Z,14.50
2023-05-10T01:31:52.540Z,14.50
2023-05-10T01:34:26.285Z,14.40
2023-05-10T01:36:59.551Z,14.40
2023-05-10T01:39:37.314Z,14.40
2023-05-10T01:42:09.638Z,14.30
2023-05-10T01:44:41.212Z,14.30
2023-05-10T01:47:12.357Z,14.30
2023-05-10T01:49:44.791Z,14.30
2023-05-10T01:52:14.882Z,14.30
2023-05-10T01:54:48.463Z,14.30
2023-05-10T01:57:17.189Z,14.30
2023-05-10T01:59:46.445Z,14.30
2023-05-10T02:02:15.911Z,14.30
2023-05-10T02:04:44.520Z,14.30
2023-05-10T02:07:12.480Z,14.30
2023-05-10T02:09:39.632Z,14.30
2023-05-10T02:12:08.324Z,14.30
2023-05-10T02:14:37.659Z,14.30
2023-05-10T02:17:06.967Z,14.30
2023-05-10T02:19:37.056Z,14.30
2023-05-10T02:22:04.916Z,14.30
2023-05-10T02:24:33.016Z,14.30
2023-05-10T02:27:01.179Z,14.30
2023-05-10T02:29:29.189Z,14.30
2023-05-10T02:31:57.595Z,14.30
2023-05-10T02:34:26.403Z,14.30
2023-05-10T02:36:55.876Z,14.20
2023-05-10T02:39:23.701Z,14.20
2023-05-10T02:41:52.549Z,14.20
2023-05-10T02:44:21.402Z,14.20
2023-05-10T02:46:48.902Z,14.20
2023-05-10T02:49:16.372Z,14.20
2023-05-10T02:51:48.191Z,14.10
2023-05-10T02:54:20.137Z,14.10
2023-05-10T02:56:54.762Z,14.10
2023-05-10T02:59:21.702Z,14.10
2023-05-10T03:01:48.499Z,14.10
2023-05-10T03:04:16.105Z,14.10
2023-05-10T03:06:43.268Z,14.10
2023-05-10T03:09:12.120Z,14.10
2023-05-10T03:11:50.698Z,14.10
2023-05-10T03:14:25.920Z,14.10
2023-05-10T03:16:58.571Z,14.20
2023-05-10T03:19:31.232Z,14.20
2023-05-10T03:22:01.367Z,14.10
2023-05-10T03:24:29.693Z,14.10
2023-05-10T03:27:03.462Z,14.10
2023-05-10T03:29:32.083Z,14.10
2023-05-10T03:32:00.091Z,14.00
2023-05-10T03:34:27.194Z,14.00
2023-05-10T03:36:53.994Z,13.90
2023-05-10T03:39:22.290Z,13.90
2023-05-10T03:41:49.207Z,13.90
2023-05-10T03:44:17.432Z,13.90
2023-05-10T03:46:44.290Z,13.80
2023-05-10T03:49:11.167Z,13.80
2023-05-10T03:51:38.109Z,13.80
2023-05-10T03:54:05.137Z,13.80
2023-05-10T03:56:32.052Z,13.90
2023-05-10T03:58:58.889Z,13.90
2023-05-10T04:01:27.042Z,13.90
2023-05-10T04:03:53.949Z,13.90
2023-05-10T04:06:21.087Z,13.90
2023-05-10T04:08:47.888Z,13.90
2023-05-10T04:11:15.186Z,13.90
2023-05-10T04:13:42.117Z,13.90
2023-05-10T04:16:09.034Z,14.00
2023-05-10T04:18:37.280Z,14.00
2023-05-10T04:21:04.301Z,14.00
2023-05-10T04:23:31.120Z,14.10
2023-05-10T04:26:01.754Z,14.10
2023-05-10T04:28:28.715Z,14.10
2023-05-10T04:31:02.560Z,14.20
2023-05-10T04:33:29.735Z,14.20
2023-05-10T04:35:57.930Z,14.20
2023-05-10T04:38:25.546Z,14.20
2023-05-10T04:40:52.456Z,14.30
2023-05-10T04:43:19.457Z,14.30
2023-05-10T04:45:46.351Z,14.30
2023-05-10T04:48:13.462Z,14.30
2023-05-10T04:50:40.905Z,14.30
2023-05-10T04:53:09.068Z,14.30
2023-05-10T04:55:36.547Z,14.30
2023-05-10T04:58:03.773Z,14.40
2023-05-10T05:00:30.847Z,14.40
2023-05-10T05:02:57.791Z,14.40
2023-05-10T05:05:24.714Z,14.40
2023-05-10T05:07:51.760Z,14.40
2023-05-10T05:10:20.232Z,14.40
2023-05-10T05:12:47.131Z,14.40
2023-05-10T05:15:14.197Z,14.40
2023-05-10T05:17:41.070Z,14.40
2023-05-10T05:20:09.045Z,14.40
2023-05-10T05:22:36.938Z,14.40
2023-05-10T05:25:04.401Z,14.40
2023-05-10T05:27:33.043Z,14.40
2023-05-10T05:30:00.118Z,14.40
2023-05-10T05:32:27.044Z,14.40
2023-05-10T05:34:53.889Z,14.40
2023-05-10T05:37:22.462Z,14.40
2023-05-10T05:39:49.736Z,14.40
2023-05-10T05:42:18.518Z,14.40
2023-05-10T05:44:47.342Z,14.40
2023-05-10T05:47:14.164Z,14.40
2023-05-10T05:49:41.151Z,14.40
2023-05-10T05:52:07.964Z,14.50
2023-05-10T05:54:34.865Z,14.50
2023-05-10T05:57:02.007Z,14.40
2023-05-10T05:59:29.283Z,14.50
2023-05-10T06:01:57.485Z,14.60
2023-05-10T06:04:24.363Z,14.50
2023-05-10T06:06:51.211Z,14.60
2023-05-10T06:09:18.060Z,14.60
2023-05-10T06:11:45.033Z,14.60
2023-05-10T06:14:11.889Z,14.60
2023-05-10T06:16:38.769Z,14.70
2023-05-10T06:19:07.548Z,14.70
2023-05-10T06:21:34.466Z,14.80
2023-05-10T06:24:01.253Z,14.90
2023-05-10T06:26:28.080Z,14.80
2023-05-10T06:28:54.922Z,14.90
2023-05-10T06:31:22.137Z,14.80
2023-05-10T06:33:49.014Z,14.90
2023-05-10T06:36:17.234Z,14.90
2023-05-10T06:38:44.079Z,14.90
2023-05-10T06:41:10.951Z,14.90
2023-05-10T06:43:40.930Z,14.90
2023-05-10T06:46:08.209Z,14.90
2023-05-10T06:48:35.186Z,15.00
2023-05-10T06:51:02.128Z,15.00
2023-05-10T06:53:30.886Z,15.10
2023-05-10T06:55:57.735Z,15.10
2023-05-10T06:58:24.670Z,15.10
2023-05-10T07:00:51.817Z,15.10
2023-05-10T07:03:19.137Z,15.20
2023-05-10T07:05:46.217Z,15.20
2023-05-10T07:08:14.345Z,15.20
2023-05-10T07:10:42.690Z,15.30
2023-05-10T07:13:09.721Z,15.30
2023-05-10T07:15:37.320Z,15.30
2023-05-10T07:18:07.171Z,15.30
2023-05-10T07:20:36.045Z,15.40
2023-05-10T07:23:03.290Z,15.40
2023-05-10T07:25:30.836Z,15.40
2023-05-10T07:27:59.270Z,15.40
2023-05-10T07:30:26.724Z,15.30
2023-05-10T07:32:54.866Z,15.30
2023-05-10T07:35:23.122Z,15.30
2023-05-10T07:37:50.369Z,15.30
2023-05-10T07:40:17.468Z,15.30
2023-05-10T07:42:45.087Z,15.30
2023-05-10T07:45:13.503Z,15.30
2023-05-10T07:47:40.369Z,15.30
2023-05-10T07:50:08.707Z,15.30
2023-05-10T07:52:35.595Z,15.40
2023-05-10T07:55:03.549Z,15.40
2023-05-10T07:57:30.597Z,15.50
2023-05-10T07:59:57.533Z,15.60
2023-05-10T08:02:26.264Z,15.60
2023-05-10T08:04:53.904Z,15.70
2023-05-10T08:07:20.852Z,15.70
2023-05-10T08:09:47.735Z,15.80
2023-05-10T08:12:14.693Z,15.90
2023-05-10T08:14:41.709Z,16.00
2023-05-10T08:17:09.959Z,16.00
2023-05-10T08:19:39.721Z,16.10
2023-05-10T08:22:07.925Z,16.10
2023-05-10T08:24:39.090Z,16.10
2023-05-10T08:27:06.342Z,16.10
2023-05-10T08:32:02.718Z,16.20
2023-05-10T08:34:29.733Z,16.20
2023-05-10T08:36:57.995Z,16.20
2023-05-10T08:39:30.523Z,16.20
2023-05-10T08:42:02.348Z,16.20
2023-05-10T08:44:29.728Z,16.20
2023-05-10T08:46:58.002Z,16.20
2023-05-10T08:49:28.496Z,16.20
2023-05-10T08:51:58.646Z,16.10
2023-05-10T08:54:25.850Z,16.10
2023-05-10T08:56:54.199Z,16.00
2023-05-10T08:59:21.287Z,16.00
2023-05-10T09:01:50.323Z,16.00
2023-05-10T09:04:17.309Z,16.00
2023-05-10T09:06:44.268Z,16.00
2023-05-10T09:09:13.539Z,16.10
2023-05-10T09:11:40.801Z,16.20
2023-05-10T09:14:08.210Z,16.30
2023-05-10T09:16:35.364Z,16.40
2023-05-10T09:19:02.342Z,16.50
2023-05-10T09:21:29.373Z,16.60
2023-05-10T09:23:56.399Z,16.80
2023-05-10T09:26:25.828Z,16.90
2023-05-10T09:28:54.674Z,17.00
2023-05-10T09:31:21.844Z,17.10
2023-05-10T09:33:50.316Z,17.20
2023-05-10T09:36:17.872Z,17.30
2023-05-10T09:38:52.740Z,17.40
2023-05-10T09:41:21.555Z,17.50
2023-05-10T09:43:50.362Z,17.80
2023-05-10T09:46:17.601Z,17.90
2023-05-10T09:48:45.798Z,18.00
2023-05-10T09:51:20.110Z,18.20
2023-05-10T09:53:47.193Z,18.30
2023-05-10T09:56:14.080Z,18.40
2023-05-10T09:58:41.456Z,18.50
2023-05-10T10:01:13.302Z,18.40
2023-05-10T10:03:44.289Z,18.30
2023-05-10T10:06:22.677Z,18.10
2023-05-10T10:08:58.218Z,17.80
2023-05-10T10:11:25.507Z,17.60
2023-05-10T10:13:52.536Z,17.50
2023-05-10T10:16:22.300Z,17.50
2023-05-10T10:18:50.342Z,17.40
2023-05-10T10:21:18.328Z,17.30
2023-05-10T10:23:45.326Z,17.30
2023-05-10T10:26:12.895Z,17.20
2023-05-10T10:28:48.265Z,17.20
2023-05-10T10:31:27.630Z,17.20
2023-05-10T10:34:02.058Z,17.20
2023-05-10T10:36:29.117Z,17.00
2023-05-10T10:39:00.646Z,17.00
2023-05-10T10:41:32.711Z,16.90
2023-05-10T10:44:41.477Z,16.70
2023-05-10T10:47:25.944Z,16.60
2023-05-10T10:50:03.268Z,16.50
2023-05-10T10:52:34.570Z,16.40
2023-05-10T10:55:03.897Z,16.40
2023-05-10T10:57:33.666Z,16.40
2023-05-10T11:00:22.908Z,16.40
2023-05-10T11:02:53.587Z,16.40
2023-05-10T11:05:45.440Z,16.30
2023-05-10T11:08:20.318Z,16.20
2023-05-10T11:11:08.068Z,16.30
2023-05-10T11:13:39.092Z,16.30
2023-05-10T11:16:14.723Z,16.40
2023-05-10T11:18:54.579Z,16.40
2023-05-10T11:21:21.600Z,16.50
2023-05-10T11:23:53.566Z,16.60
2023-05-10T11:26:24.001Z,16.80
2023-05-10T11:28:51.508Z,16.90
2023-05-10T11:31:19.377Z,16.90
2023-05-10T11:33:48.654Z,17.00
2023-05-10T11:36:16.366Z,17.00
2023-05-10T11:38:43.437Z,17.10
2023-05-10T11:41:11.490Z,17.10
2023-05-10T11:43:39.504Z,17.20
2023-05-10T11:46:07.454Z,17.20
2023-05-10T11:48:34.502Z,17.20
2023-05-10T11:51:03.606Z,17.30
2023-05-10T11:53:32.257Z,17.50
2023-05-10T11:56:04.293Z,17.50
2023-05-10T11:58:31.994Z,17.60
2023-05-10T12:00:59.572Z,17.80
2023-05-10T12:03:26.727Z,17.80
2023-05-10T12:05:54.014Z,17.90
2023-05-10T12:08:24.040Z,17.90
2023-05-10T12:10:52.195Z,17.90
2023-05-10T12:13:19.877Z,18.00
2023-05-10T12:15:47.841Z,18.10
2023-05-10T12:18:15.780Z,18.20
2023-05-10T12:20:42.778Z,18.40
2023-05-10T12:23:10.902Z,18.50
2023-05-10T12:25:40.196Z,18.70
2023-05-10T12:28:09.408Z,18.80
2023-05-10T12:30:40.698Z,19.10
2023-05-10T12:33:12.089Z,19.40
2023-05-10T12:35:46.942Z,19.50
2023-05-10T12:38:27.640Z,19.60
2023-05-10T12:40:56.423Z,19.60
2023-05-10T12:43:23.642Z,19.60
2023-05-10T12:45:50.801Z,19.60
2023-05-10T12:48:17.863Z,19.60
2023-05-10T12:50:44.877Z,19.40
2023-05-10T12:53:11.857Z,19.40
2023-05-10T12:55:38.747Z,19.30
2023-05-10T12:58:06.991Z,19.20
2023-05-10T13:00:33.975Z,19.30
2023-05-10T13:03:00.986Z,19.30
2023-05-10T13:05:27.879Z,19.30
2023-05-10T13:07:54.736Z,19.30
2023-05-10T13:10:22.068Z,19.30
2023-05-10T13:12:48.861Z,19.20
2023-05-10T13:15:17.123Z,19.10
2023-05-10T13:17:44.498Z,18.90
2023-05-10T13:20:12.213Z,18.90
2023-05-10T13:22:40.537Z,18.80
2023-05-10T13:25:08.159Z,18.70
2023-05-10T13:27:35.027Z,18.60
2023-05-10T13:30:02.470Z,18.60
2023-05-10T13:32:30.767Z,18.60
2023-05-10T13:34:57.717Z,18.50
2023-05-10T13:37:24.648Z,18.40
2023-05-10T13:39:51.498Z,18.40
2023-05-10T13:42:18.523Z,18.40
2023-05-10T13:44:45.571Z,18.40
2023-05-10T13:47:12.383Z,18.40
2023-05-10T13:49:40.648Z,18.40
2023-05-10T13:52:11.551Z,18.40
2023-05-10T13:54:39.228Z,18.50
2023-05-10T13:57:06.442Z,18.50
2023-05-10T13:59:33.725Z,18.50
2023-05-10T14:02:01.619Z,18.50
2023-05-10T14:04:28.443Z,18.60
2023-05-10T14:06:56.761Z,18.60
2023-05-10T14:09:23.626Z,18.70
2023-05-10T14:11:50.599Z,18.70
2023-05-10T14:14:17.775Z,18.70
2023-05-10T14:16:45.639Z,18.80
2023-05-10T14:19:12.995Z,18.70
2023-05-10T14:21:39.946Z,18.80
2023-05-10T14:24:08.244Z,18.80
2023-05-10T14:26:35.475Z,18.80
2023-05-10T14:29:02.538Z,18.90
2023-05-10T14:31:31.255Z,18.90
2023-05-10T14:33:58.788Z,19.00
2023-05-10T14:36:25.865Z,18.90
2023-05-10T14:38:52.777Z,19.00
2023-05-10T14:41:21.042Z,19.00
2023-05-10T14:43:47.904Z,19.10
2023-05-10T14:46:14.696Z,19.10
2023-05-10T14:48:41.483Z,19.10
2023-05-10T14:51:08.332Z,19.10
2023-05-10T14:53:35.624Z,19.10
2023-05-10T14:56:02.640Z,19.20
2023-05-10T14:58:33.971Z,19.20
2023-05-10T15:01:01.191Z,19.20
2023-05-10T15:03:30.331Z,19.20
2023-05-10T15:05:59.144Z,19.20
2023-05-10T15:08:26.118Z,19.20
2023-05-10T15:10:53.414Z,19.30
2023-05-10T15:13:20.324Z,19.40
2023-05-10T15:15:49.362Z,19.40
2023-05-10T15:18:16.483Z,19.50
2023-05-10T15:20:43.375Z,19.50
2023-05-10T15:23:10.252Z,19.40
2023-05-10T15:25:38.203Z,19.40
2023-05-10T15:28:05.686Z,19.40
2023-05-10T15:30:32.663Z,19.40
2023-05-10T15:33:00.879Z,19.40
2023-05-10T15:35:28.121Z,19.40
2023-05-10T15:37:54.997Z,19.50
2023-05-10T15:40:21.943Z,19.60
2023-05-10T15:42:48.847Z,19.70
2023-05-10T15:45:16.381Z,19.70
2023-05-10T15:47:45.009Z,19.80
2023-05-10T15:50:13.366Z,19.80
2023-05-10T15:52:40.452Z,20.00
2023-05-10T15:55:13.293Z,19.90
2023-05-10T15:57:41.241Z,19.90
2023-05-10T16:00:09.367Z,19.90
2023-05-10T16:02:36.421Z,19.90
2023-05-10T16:05:03.697Z,19.80
2023-05-10T16:07:32.154Z,19.60
2023-05-10T16:09:59.070Z,19.60
2023-05-10T16:12:26.117Z,19.40
2023-05-10T16:14:52.940Z,19.30
2023-05-10T16:17:20.432Z,19.30
2023-05-10T16:19:47.547Z,19.20
2023-05-10T16:22:14.490Z,19.20
2023-05-10T16:24:42.667Z,19.20
2023-05-10T16:27:09.902Z,19.30
2023-05-10T16:29:36.937Z,19.30
2023-05-10T16:32:03.877Z,19.30
2023-05-10T16:34:30.944Z,19.30
2023-05-10T16:36:57.729Z,19.20
2023-05-10T16:39:24.574Z,19.20
2023-05-10T16:41:52.888Z,19.10
2023-05-10T16:44:20.809Z,19.10
2023-05-10T16:46:48.861Z,19.00
2023-05-10T16:49:16.535Z,19.00
2023-05-10T16:51:43.548Z,19.00
2023-05-10T16:54:10.305Z,19.10
2023-05-10T16:56:37.301Z,19.00
2023-05-10T16:59:05.921Z,19.00
2023-05-10T17:01:33.950Z,18.90
2023-05-10T17:04:00.994Z,18.90
2023-05-10T17:06:27.976Z,18.80
2023-05-10T17:08:54.753Z,18.80
2023-05-10T17:11:21.894Z,18.60
2023-05-10T17:13:48.844Z,18.70
2023-05-10T17:16:17.226Z,18.60
2023-05-10T17:18:45.729Z,18.60
2023-05-10T17:21:12.658Z,18.50
2023-05-10T17:23:39.490Z,18.40
2023-05-10T17:26:06.868Z,18.40
2023-05-10T17:28:33.757Z,18.50
2023-05-10T17:31:00.612Z,18.40
2023-05-10T17:33:28.832Z,18.50
2023-05-10T17:35:55.788Z,18.40
2023-05-10T17:38:22.663Z,18.40
2023-05-10T17:40:49.604Z,18.40
2023-05-10T17:43:16.394Z,18.40
2023-05-10T17:45:48.149Z,18.40
2023-05-10T17:48:15.184Z,18.40
2023-05-10T17:50:43.841Z,18.30
2023-05-10T17:53:11.047Z,18.40
2023-05-10T17:55:40.840Z,18.40
2023-05-10T17:58:08.301Z,18.40
2023-05-10T18:00:35.905Z,18.50
2023-05-10T18:03:03.046Z,18.50
2023-05-10T18:05:30.070Z,18.50
2023-05-10T18:07:58.582Z,18.40
2023-05-10T18:10:25.420Z,18.40
2023-05-10T18:12:52.424Z,18.30
2023-05-10T18:15:19.596Z,18.30
2023-05-10T18:17:46.795Z,18.20
2023-05-10T18:20:13.613Z,18.20
2023-05-10T18:22:40.435Z,18.10
2023-05-10T18:25:10.525Z,18.10
2023-05-10T18:27:37.758Z,18.10
2023-05-10T18:30:06.192Z,18.10
2023-05-10T18:32:33.274Z,18.10
2023-05-10T18:35:00.183Z,18.00
2023-05-10T18:37:27.045Z,18.00
2023-05-10T18:39:54.949Z,18.00
2023-05-10T18:42:24.429Z,18.00
2023-05-10T18:44:52.041Z,18.00
2023-05-10T18:47:19.188Z,18.00
2023-05-10T18:49:46.390Z,18.00
2023-05-10T18:52:14.322Z,18.00
2023-05-10T18:54:41.443Z,18.00
2023-05-10T18:57:08.459Z,18.00
2023-05-10T18:59:36.705Z,18.00
2023-05-10T19:02:03.711Z,17.90
2023-05-10T19:04:30.652Z,17.90
2023-05-10T19:06:57.704Z,17.80
2023-05-10T19:09:26.506Z,17.90
2023-05-10T19:11:53.844Z,17.80
2023-05-10T19:14:20.910Z,17.80
2023-05-10T19:16:49.324Z,17.70
2023-05-10T19:19:16.373Z,17.70
2023-05-10T19:21:43.361Z,17.70
2023-05-10T19:24:11.877Z,17.60
2023-05-10T19:26:39.166Z,17.60
2023-05-10T19:29:06.378Z,17.50
2023-05-10T19:31:34.664Z,17.40
2023-05-10T19:34:03.556Z,17.20
2023-05-10T19:36:31.344Z,17.40
2023-05-10T19:38:58.423Z,17.30
2023-05-10T19:41:25.517Z,17.30
2023-05-10T19:43:53.057Z,17.20
2023-05-10T19:46:20.525Z,17.20
2023-05-10T19:48:47.549Z,17.20
2023-05-10T19:51:15.920Z,17.10
2023-05-10T19:53:44.677Z,17.10
2023-05-10T19:56:12.620Z,17.00
2023-05-10T19:58:40.001Z,17.00
2023-05-10T20:01:07.804Z,16.90
2023-05-10T20:03:35.625Z,16.80
2023-05-10T20:06:02.943Z,16.80
2023-05-10T20:08:31.516Z,16.70
2023-05-10T20:11:00.534Z,16.60
2023-05-10T20:13:27.461Z,16.70
2023-05-10T20:15:56.021Z,16.50
2023-05-10T20:18:22.985Z,16.50
2023-05-10T20:20:54.314Z,16.40
2023-05-10T20:23:22.522Z,16.40
2023-05-10T20:25:51.454Z,16.30
2023-05-10T20:28:22.093Z,16.30
2023-05-10T20:30:52.907Z,16.20
2023-05-10T20:33:20.138Z,16.20
2023-05-10T20:35:47.273Z,16.20
2023-05-10T20:38:17.252Z,16.10
2023-05-10T20:40:46.352Z,16.10
2023-05-10T20:43:15.828Z,16.10
2023-05-10T20:45:43.828Z,16.10
2023-05-10T20:48:10.760Z,16.10
2023-05-10T20:50:37.826Z,16.10
2023-05-10T20:53:05.120Z,16.10
2023-05-10T20:55:32.121Z,16.00
2023-05-10T20:57:59.190Z,16.00
2023-05-10T21:00:27.975Z,16.00
2023-05-10T21:02:55.116Z,16.00
2023-05-10T21:05:22.231Z,16.00
2023-05-10T21:07:49.466Z,16.00
2023-05-10T21:10:16.827Z,15.90
2023-05-10T21:12:44.086Z,15.90
2023-05-10T21:15:11.807Z,15.90
2023-05-10T21:17:42.448Z,15.80
2023-05-10T21:20:11.712Z,15.80
2023-05-10T21:22:39.174Z,15.70
2023-05-10T21:25:07.220Z,15.70
2023-05-10T21:27:34.274Z,15.70
2023-05-10T21:30:01.736Z,15.70
2023-05-10T21:32:28.857Z,15.70
2023-05-10T21:34:57.185Z,15.70
2023-05-10T21:37:24.091Z,15.60
2023-05-10T21:39:52.743Z,15.60
2023-05-10T21:42:19.672Z,15.60
2023-05-10T21:44:46.568Z,15.50
2023-05-10T21:47:13.351Z,15.50
2023-05-10T21:49:40.238Z,15.50
2023-05-10T21:52:08.471Z,15.40
2023-05-10T21:54:37.186Z,15.40
2023-05-10T21:57:04.192Z,15.30
2023-05-10T21:59:31.020Z,15.30
2023-05-10T22:01:57.892Z,15.30
2023-05-10T22:04:24.826Z,15.30
2023-05-10T22:06:51.654Z,15.20
2023-05-10T22:09:20.103Z,15.20
2023-05-10T22:11:48.562Z,15.20
2023-05-10T22:14:15.562Z,15.20
2023-05-10T22:16:42.427Z,15.10
2023-05-10T22:19:09.471Z,15.10
2023-05-10T22:21:36.394Z,15.00
2023-05-10T22:24:03.474Z,15.00
2023-05-10T22:26:31.706Z,15.00
2023-05-10T22:28:58.475Z,15.00
2023-05-10T22:31:25.458Z,14.90
2023-05-10T22:33:52.263Z,14.90
2023-05-10T22:36:19.037Z,14.80
2023-05-10T22:38:45.896Z,14.80
2023-05-10T22:41:12.711Z,14.80
2023-05-10T22:43:41.079Z,14.60
2023-05-10T22:46:08.009Z,14.70
2023-05-10T22:48:35.511Z,14.70
2023-05-10T22:51:02.414Z,14.60
2023-05-10T22:53:29.195Z,14.60
2023-05-10T22:55:56.249Z,14.50
2023-05-10T22:58:23.142Z,14.40
2023-05-10T23:00:51.391Z,14.40
2023-05-10T23:03:18.296Z,14.30
2023-05-10T23:05:45.209Z,14.40
2023-05-10T23:08:12.152Z,14.20
2023-05-10T23:10:39.165Z,14.20
2023-05-10T23:13:06.253Z,14.20
2023-05-10T23:15:33.196Z,14.20
2023-05-10T23:18:01.632Z,14.20
2023-05-10T23:20:28.910Z,14.10
2023-05-10T23:22:56.228Z,14.10
2023-05-10T23:25:23.216Z,14.10
2023-05-10T23:27:50.186Z,14.10
2023-05-10T23:30:17.376Z,14.10
2023-05-10T23:32:44.409Z,14.10
2023-05-10T23:35:12.651Z,14.00
2023-05-10T23:37:39.508Z,14.00
2023-05-10T23:40:08.080Z,14.00
2023-05-10T23:42:34.884Z,14.00
2023-05-10T23:45:01.755Z,14.00
2023-05-10T23:47:28.679Z,13.90
2023-05-10T23:49:55.582Z,13.90
2023-05-10T23:52:25.060Z,13.90
2023-05-10T23:54:52.302Z,13.90
2023-05-10T23:57:19.244Z,13.90
2023-05-10T23:59:46.510Z,13.90
